Time;durP1;ratioP1;P1;durP2;ratioP2;P2;SDS_P1;SDS_P2;PMS_P1;PMS_P2;Temp;Humidity;BMP_temperature;BMP_pressure;BME280_temperature;BME280_humidity;BME280_pressure;Samples;Min_cycle;Max_cycle;Signal;HPM_P1;HPM_P2
2022/12/22 03:25:54;;;;;;;33.80;17.85;;;;;;;;;;5057429;28;20390;-71
2022/12/22 03:28:22;;;;;;;32.08;17.20;;;;;;;;;;5056680;28;20052;-71
2022/12/22 03:30:55;;;;;;;27.00;15.50;;;;;;;;;;5056550;28;20049;-72
2022/12/22 03:33:21;;;;;;;32.72;18.52;;;;;;;;;;5056578;28;20045;-72
2022/12/22 03:35:47;;;;;;;30.75;15.93;;;;;;;;;;5056764;28;20535;-72
2022/12/22 03:38:14;;;;;;;26.42;15.68;;;;;;;;;;5055029;28;20497;-71
2022/12/22 03:40:40;;;;;;;29.33;16.17;;;;;;;;;;5057297;28;20052;-72
2022/12/22 03:48:39;;;;;;;29.10;15.70;;;;;;;;;;5056345;28;20045;-71
2022/12/22 03:51:05;;;;;;;25.92;14.75;;;;;;;;;;5056791;28;20052;-71
2022/12/22 03:53:31;;;;;;;24.92;14.50;;;;;;;;;;5056076;28;20049;-72
2022/12/22 03:55:57;;;;;;;27.35;14.98;;;;;;;;;;5055459;28;20049;-72
2022/12/22 03:58:23;;;;;;;29.75;16.23;;;;;;;;;;5055556;28;20393;-72
2022/12/22 04:00:49;;;;;;;26.10;14.25;;;;;;;;;;5038462;28;20053;-72
2022/12/22 04:03:16;;;;;;;25.98;14.80;;;;;;;;;;5056097;28;20049;-72
2022/12/22 04:05:42;;;;;;;26.38;14.95;;;;;;;;;;5054789;28;20049;-72
2022/12/22 04:08:08;;;;;;;25.38;15.07;;;;;;;;;;5054961;28;20048;-72
2022/12/22 04:13:19;;;;;;;24.77;13.18;;;;;;;;;;5055911;28;20057;-71
2022/12/22 04:15:45;;;;;;;25.30;13.90;;;;;;;;;;5054827;28;20131;-72
2022/12/22 04:18:11;;;;;;;26.42;15.80;;;;;;;;;;5054788;28;20055;-71
2022/12/22 04:20:37;;;;;;;25.30;13.52;;;;;;;;;;5038536;28;20037;-71
2022/12/22 04:23:03;;;;;;;25.27;14.57;;;;;;;;;;5055584;28;20048;-72
2022/12/22 04:25:29;;;;;;;26.10;13.90;;;8.50;99.90;;;;;;5055417;28;20052;-72
2022/12/22 04:27:55;;;;;;;29.50;16.42;;;8.60;99.90;;;;;;5055344;28;20139;-72
2022/12/22 04:30:20;;;;;;;24.02;13.95;;;8.70;99.90;;;;;;5055546;28;20052;-72
2022/12/22 04:32:46;;;;;;;22.48;13.50;;;8.50;99.90;;;;;;5055480;28;20049;-72
2022/12/22 04:35:12;;;;;;;26.30;15.50;;;8.60;99.90;;;;;;5038678;28;20091;-72
2022/12/22 04:37:38;;;;;;;32.13;17.05;;;;;;;;;;5055326;28;20032;-72
2022/12/22 04:40:04;;;;;;;27.52;15.32;;;;;;;;;;5054399;28;20053;-72
2022/12/22 04:42:30;;;;;;;29.85;16.55;;;;;;;;;;5055461;28;20378;-72
2022/12/22 04:44:56;;;;;;;26.67;14.40;;;;;;;;;;5055481;28;20045;-72
2022/12/22 04:47:22;;;;;;;24.60;14.07;;;;;;;;;;5054338;28;20441;-71
2022/12/22 04:49:48;;;;;;;26.17;15.43;;;;;;;;;;5056050;28;20053;-72
2022/12/22 04:52:14;;;;;;;28.90;15.60;;;;;;;;;;5055464;28;20190;-71
2022/12/22 04:54:40;;;;;;;23.73;13.50;;;;;;;;;;5037375;28;20064;-72
2022/12/22 04:57:07;;;;;;;24.23;13.82;;;;;;;;;;5055025;28;20053;-71
2022/12/22 04:59:33;;;;;;;25.77;14.18;;;;;;;;;;5053814;28;20045;-72
2022/12/22 05:01:59;;;;;;;29.08;15.57;;;;;;;;;;5053674;28;20049;-72
2022/12/22 05:04:25;;;;;;;30.73;15.93;;;;;;;;;;5054884;28;20500;-72
2022/12/22 05:06:51;;;;;;;25.38;14.48;;;;;;;;;;5055096;28;20436;-71
2022/12/22 05:09:17;;;;;;;26.85;14.95;;;;;;;;;;5054612;28;20045;-72
2022/12/22 05:11:43;;;;;;;20.33;12.15;;;;;;;;;;5053194;28;20397;-71
2022/12/22 05:14:09;;;;;;;23.25;13.52;;;8.80;99.90;;;;;;5053541;28;20049;-72
2022/12/22 05:16:34;;;;;;;22.60;13.27;;;8.60;99.90;;;;;;5054298;28;20438;-72
2022/12/22 05:19:00;;;;;;;28.15;15.15;;;8.60;99.90;;;;;;5054495;28;20090;-71
2022/12/22 05:21:26;;;;;;;25.35;12.80;;;8.70;99.90;;;;;;5021291;28;20136;-72
2022/12/22 05:23:52;;;;;;;25.83;15.05;;;8.50;99.90;;;;;;5053524;28;20385;-72
2022/12/22 05:26:18;;;;;;;29.45;15.30;;;8.60;99.90;;;;;;5054600;28;20044;-71
2022/12/22 05:28:47;;;;;;;24.60;14.32;;;8.40;99.90;;;;;;5053531;28;20053;-72
2022/12/22 05:31:21;;;;;;;25.83;14.27;;;8.40;99.90;;;;;;5054367;28;20064;-72
2022/12/22 05:33:47;;;;;;;26.52;15.52;;;8.40;99.90;;;;;;5054180;28;20369;-72
2022/12/22 05:36:13;;;;;;;26.52;14.77;;;8.60;99.90;;;;;;5054846;28;20397;-72
2022/12/22 05:38:39;;;;;;;22.92;14.20;;;8.70;99.90;;;;;;5054731;28;20052;-72
2022/12/22 05:41:06;;;;;;;21.50;12.05;;;8.50;99.90;;;;;;5052913;28;20056;-72
2022/12/22 05:43:33;;;;;;;25.95;14.85;;;8.50;99.90;;;;;;5054678;28;20123;-72
2022/12/22 05:46:03;;;;;;;24.90;13.70;;;8.50;99.90;;;;;;5053808;28;20102;-72
2022/12/22 05:48:30;;;;;;;27.77;15.05;;;8.40;99.90;;;;;;5053745;28;20045;-72
2022/12/22 05:50:55;;;;;;;27.05;15.48;;;8.60;99.90;;;;;;5053393;28;20051;-72
2022/12/22 05:53:21;;;;;;;29.65;15.25;;;8.50;99.90;;;;;;5069966;28;20045;-72
2022/12/22 05:55:47;;;;;;;25.88;13.50;;;8.30;99.90;;;;;;5052928;28;20053;-72
2022/12/22 05:58:12;;;;;;;27.63;14.70;;;8.50;99.90;;;;;;5054403;28;20037;-71
2022/12/22 06:00:38;;;;;;;29.88;15.50;;;8.50;99.90;;;;;;5052681;28;20152;-71
2022/12/22 06:03:04;;;;;;;31.30;16.92;;;8.60;99.90;;;;;;5054115;28;20094;-72
2022/12/22 06:05:29;;;;;;;33.72;16.33;;;8.60;99.90;;;;;;5054084;28;20072;-72
2022/12/22 06:07:55;;;;;;;33.90;16.88;;;8.70;99.90;;;;;;5053712;28;20044;-72
2022/12/22 06:10:21;;;;;;;36.60;17.00;;;8.30;99.90;;;;;;5053673;28;20071;-71
2022/12/22 06:12:46;;;;;;;30.00;14.57;;;8.60;99.90;;;;;;5053697;28;20045;-71
2022/12/22 06:15:14;;;;;;;32.90;15.60;;;8.70;99.90;;;;;;5052500;28;20053;-72
2022/12/22 06:17:40;;;;;;;30.13;16.27;;;8.20;99.90;;;;;;5052308;28;20049;-72
2022/12/22 06:20:07;;;;;;;32.15;15.82;;;8.40;99.90;;;;;;5053526;28;20097;-72
2022/12/22 06:22:33;;;;;;;37.60;16.55;;;8.70;99.90;;;;;;5052195;28;20044;-72
2022/12/22 06:24:59;;;;;;;30.52;15.30;;;8.40;99.90;;;;;;5052458;28;20053;-72
2022/12/22 06:27:25;;;;;;;33.58;16.25;;;8.40;99.90;;;;;;5052298;28;20389;-72
2022/12/22 06:29:50;;;;;;;33.67;16.77;;;8.30;99.90;;;;;;5053460;28;20052;-72
2022/12/22 06:32:16;;;;;;;35.22;17.17;;;8.60;99.90;;;;;;5052275;28;20045;-72
2022/12/22 06:34:42;;;;;;;36.40;15.98;;;8.30;99.90;;;;;;5052152;28;20057;-72
2022/12/22 06:37:08;;;;;;;30.80;15.13;;;8.30;99.90;;;;;;5053305;28;20041;-72
2022/12/22 06:39:34;;;;;;;40.25;16.38;;;8.30;99.90;;;;;;5052306;28;20041;-72
2022/12/22 06:44:44;;;;;;;31.52;14.82;;;8.50;99.90;;;;;;5053662;28;20049;-72
2022/12/22 06:47:10;;;;;;;36.75;17.00;;;8.20;99.90;;;;;;5053229;28;20047;-72
2022/12/22 06:49:36;;;;;;;38.83;16.90;;;8.30;99.90;;;;;;5053571;28;20045;-72
2022/12/22 06:52:05;;;;;;;45.58;17.98;;;8.10;99.90;;;;;;5052926;28;20053;-72
2022/12/22 06:54:31;;;;;;;37.13;17.13;;;8.20;99.90;;;;;;5035508;28;20389;-72
2022/12/22 06:56:57;;;;;;;38.05;16.33;;;8.40;99.90;;;;;;5053197;28;20068;-72
2022/12/22 06:59:22;;;;;;;40.60;16.17;;;8.20;99.90;;;;;;5036155;28;20075;-72
2022/12/22 07:01:48;;;;;;;35.90;15.45;;;7.90;99.90;;;;;;5053489;28;20076;-72
2022/12/22 07:04:18;;;;;;;42.33;17.60;;;7.90;99.90;;;;;;5035559;28;20044;-72
2022/12/22 07:06:44;;;;;;;39.38;15.70;;;8.00;99.90;;;;;;5053172;28;20052;-72
2022/12/22 07:09:10;;;;;;;36.78;15.45;;;7.80;99.90;;;;;;5052194;28;20041;-72
2022/12/22 07:11:35;;;;;;;34.70;15.15;;;7.50;99.90;;;;;;5053092;28;20550;-72
2022/12/22 07:14:01;;;;;;;28.00;12.90;;;7.80;99.90;;;;;;5052077;28;20080;-72
2022/12/22 07:16:27;;;;;;;27.58;12.13;;;7.80;99.90;;;;;;5052760;28;20094;-72
2022/12/22 07:18:52;;;;;;;37.05;14.50;;;7.50;99.90;;;;;;5053514;28;20037;-72
2022/12/22 07:21:18;;;;;;;38.08;15.68;;;7.50;99.90;;;;;;5052819;28;20056;-72
2022/12/22 07:23:44;;;;;;;32.08;14.93;;;7.60;99.90;;;;;;5035499;28;20135;-72
2022/12/22 07:26:11;;;;;;;32.50;14.25;;;7.50;99.90;;;;;;5052040;28;20049;-72
2022/12/22 07:28:39;;;;;;;41.50;17.45;;;7.40;99.90;;;;;;5052122;28;20473;-72
2022/12/22 07:31:05;;;;;;;33.58;14.55;;;7.20;99.90;;;;;;5053017;28;20052;-72
2022/12/22 07:33:31;;;;;;;33.53;14.43;;;7.40;99.90;;;;;;5053467;28;20465;-72
2022/12/22 07:36:02;;;;;;;37.65;16.42;;;7.30;99.90;;;;;;5057236;28;20045;-72
2022/12/22 07:38:30;;;;;;;41.08;16.80;;;7.10;99.90;;;;;;5056469;28;20084;-72
2022/12/22 07:40:58;;;;;;;41.55;16.23;;;7.30;99.90;;;;;;5056989;28;20056;-72
2022/12/22 07:43:23;;;;;;;28.20;13.70;;;7.50;99.90;;;;;;5057210;28;20051;-72
2022/12/22 07:45:49;;;;;;;42.25;15.63;;;7.30;99.90;;;;;;5056360;28;20480;-71
2022/12/22 07:51:04;;;;;;;28.63;14.10;;;7.20;99.90;;;;;;5056218;28;20053;-72
2022/12/22 07:53:30;;;;;;;31.00;13.15;;;6.90;99.90;;;;;;5057770;28;20433;-71
2022/12/22 07:55:56;;;;;;;35.35;15.18;;;6.70;99.90;;;;;;5056886;28;20053;-72
2022/12/22 07:58:21;;;;;;;38.33;14.60;;;7.10;99.90;;;;;;5055288;28;20076;-72
2022/12/22 08:00:47;;;;;;;36.15;13.85;;;6.70;99.90;;;;;;5022115;28;20485;-72
2022/12/22 08:03:13;;;;;;;26.38;11.90;;;6.90;99.90;;;;;;5056102;28;20060;-71
2022/12/22 08:05:38;;;;;;;37.65;15.48;;;6.90;99.90;;;;;;5055038;28;20049;-71
2022/12/22 08:08:04;;;;;;;37.55;15.02;;;6.60;99.90;;;;;;5055916;28;20037;-71
2022/12/22 08:10:31;;;;;;;35.75;15.18;;;6.70;99.90;;;;;;5054904;28;20045;-71
2022/12/22 08:12:57;;;;;;;37.80;15.27;;;6.90;99.90;;;;;;5055668;28;20049;-72
2022/12/22 08:15:23;;;;;;;40.80;15.93;;;7.00;99.90;;;;;;5055632;28;20048;-71
2022/12/22 08:17:48;;;;;;;39.85;17.40;;;6.90;99.90;;;;;;5055727;28;20037;-71
2022/12/22 08:20:14;;;;;;;46.03;17.45;;;7.00;99.90;;;;;;5038953;28;20473;-71
2022/12/22 08:22:40;;;;;;;42.80;15.90;;;6.90;99.90;;;;;;5054676;28;20095;-71
2022/12/22 08:25:06;;;;;;;40.00;14.93;;;7.20;99.90;;;;;;5054907;28;20048;-71
2022/12/22 08:27:42;;;;;;;38.53;16.20;;;7.00;99.90;;;;;;5055560;28;20116;-71
2022/12/22 08:30:09;;;;;;;33.75;13.80;;;7.10;99.90;;;;;;5055442;28;20091;-73
2022/12/22 08:32:37;;;;;;;35.70;14.40;;;7.00;99.90;;;;;;5055490;28;20504;-71
2022/12/22 08:35:04;;;;;;;31.33;14.00;;;7.00;99.90;;;;;;5055333;28;20045;-71
2022/12/22 08:37:39;;;;;;;29.52;13.77;;;7.10;99.90;;;;;;5037786;28;20137;-71
2022/12/22 08:40:11;;;;;;;28.83;13.73;;;7.00;99.90;;;;;;5055336;28;20040;-71
2022/12/22 08:42:37;;;;;;;39.33;14.07;;;7.00;99.90;;;;;;5054446;28;20076;-71
2022/12/22 08:45:04;;;;;;;31.23;13.32;;;7.20;99.90;;;;;;5054026;28;20063;-71
2022/12/22 08:47:30;;;;;;;31.45;13.15;;;7.10;99.90;;;;;;5055130;28;20539;-71
2022/12/22 08:49:56;;;;;;;35.95;14.20;;;6.90;99.90;;;;;;5054544;28;20044;-70
2022/12/22 08:52:21;;;;;;;35.03;14.55;;;7.00;99.90;;;;;;5054803;28;20461;-70
2022/12/22 08:54:47;;;;;;;29.92;12.82;;;7.10;99.90;;;;;;5055019;28;20474;-70
2022/12/22 08:57:13;;;;;;;32.80;12.43;;;6.90;99.90;;;;;;5020703;28;20140;-70
2022/12/22 08:59:38;;;;;;;27.38;12.65;;;6.80;99.90;;;;;;5021045;28;20049;-69
2022/12/22 09:02:04;;;;;;;31.23;11.25;;;6.80;99.90;;;;;;5055072;28;20056;-69
2022/12/22 09:04:32;;;;;;;26.98;11.15;;;7.00;99.90;;;;;;5053776;28;20396;-68
2022/12/22 09:06:59;;;;;;;28.20;12.25;;;6.60;99.90;;;;;;5055430;28;20052;-70
2022/12/22 09:09:24;;;;;;;31.15;12.55;;;6.90;99.90;;;;;;5054843;28;20127;-70
2022/12/22 09:11:50;;;;;;;26.50;11.30;;;6.60;99.90;;;;;;5054885;28;20127;-69
2022/12/22 09:14:16;;;;;;;27.13;11.32;;;6.50;99.90;;;;;;5053883;28;20101;-71
2022/12/22 09:16:42;;;;;;;34.70;12.45;;;6.80;99.90;;;;;;5054709;28;20041;-72
2022/12/22 09:19:08;;;;;;;30.85;12.25;;;7.00;99.90;;;;;;5053696;28;20099;-71
2022/12/22 09:21:35;;;;;;;24.48;10.57;;;7.00;99.90;;;;;;5053528;28;20072;-71
2022/12/22 09:24:03;;;;;;;33.42;12.55;;;6.60;99.90;;;;;;5054646;28;20041;-70
2022/12/22 09:26:29;;;;;;;33.67;13.32;;;6.90;99.90;;;;;;5054361;28;20110;-72
2022/12/22 09:28:55;;;;;;;34.53;12.90;;;6.80;99.90;;;;;;5037111;28;20045;-73
2022/12/22 09:31:22;;;;;;;36.30;13.25;;;6.80;99.90;;;;;;5054890;28;20135;-71
2022/12/22 09:33:48;;;;;;;23.73;9.38;;;6.40;99.90;;;;;;5054391;28;20052;-73
2022/12/22 09:36:17;;;;;;;32.38;11.68;;;6.80;99.90;;;;;;5053419;28;20049;-73
2022/12/22 09:38:43;;;;;;;30.60;10.20;;;6.40;99.90;;;;;;5053214;28;20477;-71
2022/12/22 09:41:16;;;;;;;24.88;9.82;;;6.40;99.90;;;;;;5054570;28;20079;-72
2022/12/22 09:43:42;;;;;;;20.60;9.80;;;6.70;99.90;;;;;;5053144;28;20048;-75
2022/12/22 09:46:24;;;;;;;22.65;9.43;;;6.50;99.90;;;;;;5053313;28;20476;-74
2022/12/22 09:48:50;;;;;;;31.23;9.68;;;6.20;99.90;;;;;;5054231;28;20048;-76
2022/12/22 09:51:17;;;;;;;27.77;9.98;;;6.50;99.90;;;;;;5054180;28;20281;-74
2022/12/22 09:53:44;;;;;;;23.48;9.50;;;6.60;99.90;;;;;;5054330;28;20057;-73
2022/12/22 09:56:14;;;;;;;24.02;9.30;;;6.20;99.90;;;;;;5053593;28;20045;-73
2022/12/22 09:58:41;;;;;;;23.02;9.70;;;6.60;99.90;;;;;;5036373;28;20049;-73
2022/12/22 10:01:13;;;;;;;26.48;9.98;;;6.30;99.90;;;;;;5053983;28;20098;-73
2022/12/22 10:03:59;;;;;;;29.63;10.82;;;6.40;99.90;;;;;;5053584;28;20053;-74
2022/12/22 10:06:38;;;;;;;19.33;7.78;;;6.40;99.90;;;;;;5054943;28;20049;-73
2022/12/22 10:09:23;;;;;;;20.58;8.80;;;6.50;99.90;;;;;;5053911;28;20059;-74
2022/12/22 10:11:55;;;;;;;24.52;9.70;;;6.50;99.90;;;;;;5052805;28;20057;-75
2022/12/22 10:14:24;;;;;;;21.98;8.77;;;6.70;99.90;;;;;;5052754;28;20131;-75
2022/12/22 10:17:30;;;;;;;22.23;8.82;;;6.60;99.90;;;;;;5054720;28;20045;-75
2022/12/22 10:20:30;;;;;;;24.48;8.85;;;6.60;99.90;;;;;;5036862;28;20127;-74
2022/12/22 10:23:05;;;;;;;15.27;7.35;;;6.60;99.90;;;;;;5028180;28;20115;-73
2022/12/22 10:25:55;;;;;;;16.98;6.68;;;6.80;99.90;;;;;;5054414;28;20396;-77
2022/12/22 10:28:27;;;;;;;13.90;6.35;;;6.70;99.90;;;;;;5053380;28;20358;-75
2022/12/22 10:31:19;;;;;;;15.88;6.97;;;6.80;99.90;;;;;;5053498;28;20392;-75
2022/12/22 10:33:46;;;;;;;23.08;10.60;;;6.80;99.90;;;;;;5051991;28;20465;-74
2022/12/22 10:36:22;;;;;;;16.02;6.28;;;6.90;99.90;;;;;;5052530;28;20393;-75
2022/12/22 10:38:59;;;;;;;16.25;7.40;;;7.00;99.90;;;;;;5053476;28;20048;-74
2022/12/22 10:41:28;;;;;;;14.25;5.95;;;7.00;99.90;;;;;;5052429;28;20048;-80
2022/12/22 10:44:17;;;;;;;10.77;5.03;;;7.30;99.90;;;;;;5052071;28;20409;-75
2022/12/22 10:46:47;;;;;;;14.18;5.35;;;7.30;99.90;;;;;;5053767;28;20063;-76
2022/12/22 10:49:20;;;;;;;13.60;6.43;;;7.00;99.90;;;;;;5052355;28;20045;-75
2022/12/22 10:51:47;;;;;;;;;;;7.10;99.90;;;;;;5035916;28;20115;-74
2022/12/22 10:54:31;;;;;;;14.65;6.10;;;7.20;99.90;;;;;;5053869;28;19924;-72
2022/12/22 10:57:26;;;;;;;11.50;4.95;;;7.40;99.90;;;;;;5051779;28;20141;-74
2022/12/22 11:00:00;;;;;;;10.65;5.70;;;7.20;99.90;;;;;;5052032;28;20059;-75
2022/12/22 11:02:31;;;;;;;11.70;5.50;;;7.30;99.90;;;;;;5053101;28;20075;-74
2022/12/22 11:05:09;;;;;;;10.18;5.40;;;7.10;99.90;;;;;;5053656;28;20041;-74
2022/12/22 11:07:40;;;;;;;11.73;5.32;;;7.40;99.90;;;;;;5052056;28;20041;-74
2022/12/22 11:10:31;;;;;;;10.40;5.30;;;7.30;99.90;;;;;;5055966;28;20373;-74
2022/12/22 11:13:19;;;;;;;8.30;4.90;;;7.40;99.90;;;;;;5057383;28;20044;-75
2022/12/22 11:16:00;;;;;;;9.80;4.28;;;7.30;99.90;;;;;;5058744;28;20128;-80
2022/12/22 11:18:34;;;;;;;9.68;4.38;;;7.30;99.90;;;;;;5056422;28;20041;-74
2022/12/22 11:21:08;;;;;;;10.88;4.60;;;7.50;99.90;;;;;;5057232;28;20186;-75
2022/12/22 11:24:11;;;;;;;8.07;4.53;;;7.30;99.90;;;;;;5057786;28;20141;-75
2022/12/22 11:27:12;;;;;;;12.80;4.55;;;7.30;99.90;;;;;;5047535;28;20061;-74
2022/12/22 11:29:40;;;;;;;6.28;3.45;;;7.40;99.90;;;;;;5056844;28;20560;-82
2022/12/22 11:32:29;;;;;;;9.82;4.43;;;7.40;99.90;;;;;;5038506;28;20044;-76
2022/12/22 11:35:07;;;;;;;10.23;4.88;;;7.40;99.90;;;;;;5039758;28;20122;-77
2022/12/22 11:37:44;;;;;;;11.20;4.20;;;7.20;99.90;;;;;;5055245;28;20073;-76
2022/12/22 11:40:44;;;;;;;9.57;4.40;;;7.10;99.90;;;;;;5055822;28;20103;-76
2022/12/22 11:43:47;;;;;;;10.93;4.57;;;7.20;99.90;;;;;;5038815;28;20083;-79
2022/12/22 11:46:35;;;;;;;10.27;4.40;;;7.30;99.90;;;;;;5055349;28;20052;-75
2022/12/22 11:49:12;;;;;;;11.38;4.38;;;7.40;99.90;;;;;;5056118;28;20056;-76
2022/12/22 11:52:06;;;;;;;8.80;4.88;;;7.50;99.90;;;;;;5056064;28;20064;-77
2022/12/22 11:54:46;;;;;;;9.63;4.40;;;7.40;99.90;;;;;;5039010;28;20114;-77
2022/12/22 11:57:44;;;;;;;7.32;3.90;;;7.60;99.90;;;;;;5056445;28;20049;-77
2022/12/22 12:00:12;;;;;;;10.93;5.47;;;7.50;99.90;;;;;;5056002;28;20061;-78
2022/12/22 12:03:29;;;;;;;11.13;5.03;;;7.50;99.90;;;;;;5055436;28;20059;-75
2022/12/22 12:06:03;;;;;;;8.90;4.57;;;8.40;99.90;;;;;;5056269;28;20106;-76
2022/12/22 12:08:59;;;;;;;8.63;3.30;;;7.50;99.90;;;;;;5056156;28;20041;-77
2022/12/22 12:11:52;;;;;;;12.60;4.53;;;7.70;99.90;;;;;;5055770;28;20055;-77
2022/12/22 12:14:49;;;;;;;14.25;4.82;;;7.70;99.90;;;;;;5054653;28;20049;-76
2022/12/22 12:17:30;;;;;;;8.23;4.40;;;7.50;99.90;;;;;;5055074;28;20045;-76
2022/12/22 12:20:43;;;;;;;11.35;4.38;;;7.70;99.90;;;;;;5056358;28;20049;-78
2022/12/22 12:23:14;;;;;;;10.23;4.15;;;7.60;99.90;;;;;;5055798;28;20044;-76
2022/12/22 12:26:01;;;;;;;12.65;3.95;;;8.00;99.90;;;;;;5038054;28;20174;-76
2022/12/22 12:28:50;;;;;;;11.45;4.93;;;8.10;99.90;;;;;;5056837;28;20347;-79
2022/12/22 12:31:17;;;;;;;9.25;4.07;;;7.70;99.90;;;;;;5024707;28;20140;-77
2022/12/22 12:33:48;;;;;;;10.90;3.63;;;7.90;99.90;;;;;;5054906;28;20056;-76
2022/12/22 12:36:14;;;;;;;9.45;3.45;;;8.00;99.90;;;;;;5055398;28;20493;-77
2022/12/22 12:38:42;;;;;;;8.90;4.45;;;8.20;99.90;;;;;;5054134;28;20056;-76
2022/12/22 12:41:37;;;;;;;14.68;5.13;;;8.20;99.90;;;;;;5055467;28;20045;-76
2022/12/22 12:44:05;;;;;;;9.05;3.60;;;8.20;99.90;;;;;;5056177;28;20052;-74
2022/12/22 12:46:50;;;;;;;9.25;3.13;;;8.10;99.90;;;;;;5038560;28;20493;-75
2022/12/22 12:49:37;;;;;;;8.63;3.08;;;8.40;99.90;;;;;;5056347;28;20127;-75
2022/12/22 12:52:10;;;;;;;8.05;2.97;;;8.30;99.90;;;;;;5055619;28;20049;-75
2022/12/22 12:54:42;;;;;;;7.55;3.72;;;8.40;99.90;;;;;;5055028;28;20068;-76
2022/12/22 12:57:46;;;;;;;9.15;3.75;;;8.10;99.90;;;;;;5054551;28;20044;-77
2022/12/22 13:00:31;;;;;;;6.95;3.17;;;8.20;99.90;;;;;;5054594;28;20124;-77
2022/12/22 13:03:00;;;;;;;5.57;2.75;;;7.60;99.90;;;;;;5054851;28;20519;-78
2022/12/22 13:05:47;;;;;;;7.50;3.10;;;8.20;99.90;;;;;;5037338;28;20056;-75
2022/12/22 13:08:15;;;;;;;12.63;3.67;;;8.30;99.90;;;;;;5054396;28;20103;-74
2022/12/22 13:10:46;;;;;;;10.80;2.83;;;8.30;99.90;;;;;;5054075;28;20495;-77
2022/12/22 13:13:34;;;;;;;8.15;2.65;;;8.20;99.90;;;;;;5054101;28;20049;-76
2022/12/22 13:16:00;;;;;;;10.15;2.72;;;8.30;99.90;;;;;;5054764;28;20076;-75
2022/12/22 13:18:29;;;;;;;13.40;3.17;;;8.30;99.90;;;;;;5055336;28;20081;-77
2022/12/22 13:21:01;;;;;;;4.72;2.53;;;8.10;99.90;;;;;;5054358;28;20088;-77
2022/12/22 13:23:35;;;;;;;10.33;3.37;;;8.40;99.90;;;;;;5038262;28;20048;-75
2022/12/22 13:26:17;;;;;;;10.50;3.15;;;8.90;99.90;;;;;;5054096;28;20355;-75
2022/12/22 13:28:52;;;;;;;6.93;2.40;;;9.20;99.90;;;;;;5055629;28;20048;-76
2022/12/22 13:31:34;;;;;;;5.20;2.70;;;8.30;99.90;;;;;;5054454;28;20041;-74
2022/12/22 13:34:32;;;;;;;9.05;2.90;;;8.40;99.90;;;;;;5056216;28;20430;-72
2022/12/22 13:37:12;;;;;;;7.32;3.50;;;8.30;99.90;;;;;;5037781;28;20389;-78
2022/12/22 13:39:38;;;;;;;7.03;2.72;;;8.40;99.90;;;;;;5038488;28;20067;-75
2022/12/22 13:42:05;;;;;;;10.43;2.60;;;8.30;99.90;;;;;;5036918;28;20488;-76
2022/12/22 13:44:33;;;;;;;9.57;3.17;;;8.30;99.90;;;;;;5037897;28;20088;-75
2022/12/22 13:47:13;;;;;;;7.75;3.72;;;8.10;99.90;;;;;;5039166;28;20060;-80
2022/12/22 13:49:41;;;;;;;11.57;4.28;;;8.20;99.90;;;;;;5039199;28;20095;-76
2022/12/22 13:52:16;;;;;;;6.53;2.78;;;8.60;99.90;;;;;;5037716;28;20484;-77
2022/12/22 13:54:44;;;;;;;9.85;3.75;;;8.20;99.90;;;;;;5056354;28;20048;-82
2022/12/22 13:57:19;;;;;;;6.55;3.20;;;8.30;99.90;;;;;;5040298;28;20068;-79
2022/12/22 13:59:48;;;;;;;11.70;3.38;;;8.40;99.90;;;;;;5057374;28;20492;-78
2022/12/22 14:02:17;;;;;;;9.48;3.20;;;8.30;99.90;;;;;;5038717;28;20048;-78
2022/12/22 14:05:02;;;;;;;9.82;3.30;;;;;;;;;;5055809;28;20044;-80
2022/12/22 14:07:27;;;;;;;10.35;3.53;;;8.40;99.90;;;;;;5057373;28;20049;-77
2022/12/22 14:09:57;;;;;;;6.40;4.10;;;8.30;99.90;;;;;;5038339;28;20499;-78
2022/12/22 14:12:26;;;;;;;8.85;2.60;;;8.50;99.90;;;;;;5056440;28;20049;-79
2022/12/22 14:14:54;;;;;;;6.43;2.15;;;8.40;99.90;;;;;;5038705;28;20107;-79
2022/12/22 14:17:20;;;;;;;7.00;2.60;;;;;;;;;;5039575;28;20041;-77
2022/12/22 14:19:48;;;;;;;6.72;2.92;;;;;;;;;;5054114;28;20056;-80
2022/12/22 14:22:18;;;;;;;8.10;2.60;;;8.40;99.90;;;;;;5053159;28;20469;-77
2022/12/22 14:24:48;;;;;;;9.57;3.42;;;8.40;99.90;;;;;;5054257;28;20056;-81
2022/12/22 14:27:33;;;;;;;6.78;2.90;;;8.60;99.90;;;;;;5054016;28;20060;-77
2022/12/22 14:30:01;;;;;;;5.15;2.50;;;8.50;99.90;;;;;;5055403;28;20132;-79
2022/12/22 14:32:42;;;;;;;7.53;2.55;;;8.30;99.90;;;;;;5038416;28;20049;-79
2022/12/22 14:35:20;;;;;;;5.53;2.72;;;8.40;99.90;;;;;;5064132;28;20473;-81
2022/12/22 14:37:50;;;;;;;4.72;2.45;;;8.40;99.90;;;;;;5060580;28;20040;-78
2022/12/22 14:40:33;;;;;;;11.00;2.85;;;8.60;99.90;;;;;;5053486;28;20041;-77
2022/12/22 14:43:02;;;;;;;6.38;2.70;;;8.60;99.90;;;;;;5054916;28;20049;-78
2022/12/22 14:45:28;;;;;;;4.90;2.40;;;8.50;99.90;;;;;;5057877;28;20052;-76
2022/12/22 14:47:54;;;;;;;6.60;2.70;;;8.30;99.90;;;;;;5056252;28;20076;-77
2022/12/22 14:50:28;;;;;;;5.57;2.60;;;8.50;99.90;;;;;;5040798;28;20048;-80
2022/12/22 14:52:55;;;;;;;5.85;2.13;;;8.70;99.90;;;;;;5039901;28;20501;-78
2022/12/22 14:55:33;;;;;;;6.13;2.55;;;8.50;99.90;;;;;;5056822;28;20057;-78
2022/12/22 14:58:03;;;;;;;5.28;2.53;;;8.60;99.90;;;;;;5041569;28;20053;-79
2022/12/22 15:00:40;;;;;;;5.35;2.42;;;8.50;99.90;;;;;;5043686;28;20049;-79
2022/12/22 15:03:29;;;;;;;6.65;2.33;;;8.30;99.90;;;;;;5043139;28;20073;-79
2022/12/22 15:05:55;;;;;;;6.88;2.30;;;8.30;99.90;;;;;;5058536;28;20420;-79
2022/12/22 15:08:41;;;;;;;11.43;2.38;;;8.30;99.90;;;;;;5042007;28;20040;-78
2022/12/22 15:11:14;;;;;;;5.57;1.70;;;8.50;99.90;;;;;;5040707;28;20052;-76
2022/12/22 15:13:40;;;;;;;4.72;1.75;;;;;;;;;;5058409;28;20092;-76
2022/12/22 15:16:11;;;;;;;4.47;1.80;;;8.30;99.90;;;;;;5057575;28;20041;-78
2022/12/22 15:18:37;;;;;;;5.78;1.90;;;8.40;99.90;;;;;;5039588;28;20109;-77
2022/12/22 15:21:03;;;;;;;7.40;2.10;;;8.30;99.90;;;;;;5057773;28;20044;-76
2022/12/22 15:23:29;;;;;;;5.80;1.50;;;8.30;99.90;;;;;;5039765;28;20053;-76
2022/12/22 15:25:54;;;;;;;6.10;1.60;;;8.30;99.90;;;;;;5039490;28;20061;-76
2022/12/22 15:28:20;;;;;;;6.03;1.90;;;8.20;99.90;;;;;;5040208;28;20053;-78
2022/12/22 15:30:46;;;;;;;7.07;1.80;;;8.20;99.90;;;;;;5041918;28;20037;-78
2022/12/22 15:33:17;;;;;;;4.18;1.70;;;8.20;99.90;;;;;;5057431;28;20436;-77
2022/12/22 15:35:44;;;;;;;9.13;2.03;;;8.20;99.90;;;;;;5058310;28;20519;-78
2022/12/22 15:38:20;;;;;;;7.60;2.00;;;8.30;99.90;;;;;;5058128;28;20041;-78
2022/12/22 15:40:47;;;;;;;6.35;1.90;;;;;;;;;;5041698;28;20384;-79
2022/12/22 15:43:16;;;;;;;6.72;2.10;;;8.00;99.90;;;;;;5041369;28;20075;-77
2022/12/22 15:45:43;;;;;;;8.77;2.40;;;8.00;99.90;;;;;;5056911;28;20364;-77
2022/12/22 15:48:36;;;;;;;6.03;2.00;;;8.00;99.90;;;;;;5055751;28;20045;-78
2022/12/22 15:51:04;;;;;;;5.65;2.05;;;8.00;99.90;;;;;;5056669;28;20059;-77
2022/12/22 15:53:31;;;;;;;3.90;1.85;;;8.00;99.90;;;;;;5055973;28;20061;-83
2022/12/22 15:55:57;;;;;;;5.25;2.50;;;8.00;99.90;;;;;;5055578;28;20141;-77
2022/12/22 15:58:28;;;;;;;6.38;2.88;;;7.90;99.90;;;;;;5054914;28;20081;-77
2022/12/22 16:00:54;;;;;;;7.85;2.92;;;8.10;99.90;;;;;;5038328;28;20044;-77
2022/12/22 16:03:19;;;;;;;5.25;2.80;;;8.10;99.90;;;;;;5055027;28;20051;-77
2022/12/22 16:05:45;;;;;;;6.70;3.00;;;7.80;99.90;;;;;;5054899;28;20123;-77
2022/12/22 16:08:19;;;;;;;9.65;2.72;;;8.00;99.90;;;;;;5055337;28;20519;-78
2022/12/22 16:10:46;;;;;;;6.65;3.28;;;8.20;99.90;;;;;;5054532;28;20057;-81
2022/12/22 16:13:14;;;;;;;5.15;2.60;;;8.00;99.90;;;;;;5054079;28;20461;-76
2022/12/22 16:15:40;;;;;;;7.25;3.00;;;8.00;99.90;;;;;;5054556;28;20102;-76
2022/12/22 16:18:06;;;;;;;7.05;2.90;;;8.10;99.90;;;;;;5054102;28;20048;-76
2022/12/22 16:20:40;;;;;;;5.10;2.55;;;8.20;99.90;;;;;;5054766;28;20053;-77
2022/12/22 16:23:11;;;;;;;5.20;2.45;;;8.00;99.90;;;;;;5057893;28;20052;-78
2022/12/22 16:25:38;;;;;;;5.28;2.38;;;8.20;99.90;;;;;;5043304;28;20140;-79
2022/12/22 16:28:05;;;;;;;8.02;3.00;;;8.10;99.90;;;;;;5056022;28;20060;-80
2022/12/22 16:30:32;;;;;;;6.90;3.33;;;8.00;99.90;;;;;;5054588;28;20049;-80
2022/12/22 16:32:59;;;;;;;10.88;3.95;;;8.20;99.90;;;;;;5054118;28;20128;-79
2022/12/22 16:35:27;;;;;;;7.88;4.03;;;8.00;99.90;;;;;;5037290;28;20052;-79
2022/12/22 16:37:58;;;;;;;5.68;3.60;;;8.00;99.90;;;;;;5053602;28;20045;-80
2022/12/22 16:40:25;;;;;;;7.45;3.60;;;8.00;99.90;;;;;;5053742;28;20515;-80
2022/12/22 16:43:20;;;;;;;8.10;3.58;;;7.90;99.90;;;;;;5037353;28;20049;-80
2022/12/22 16:45:47;;;;;;;6.95;3.22;;;7.90;99.90;;;;;;5054575;28;20045;-79
2022/12/22 16:48:18;;;;;;;8.60;3.63;;;7.90;99.90;;;;;;5053607;28;20060;-79
2022/12/22 16:50:46;;;;;;;6.00;3.58;;;7.90;99.90;;;;;;5054055;28;20064;-78
2022/12/22 16:53:15;;;;;;;6.53;3.72;;;7.50;99.90;;;;;;5053157;28;20063;-79
2022/12/22 16:55:41;;;;;;;10.32;4.95;;;8.10;99.90;;;;;;5053430;28;20045;-79
2022/12/22 16:58:11;;;;;;;8.50;4.68;;;7.90;99.90;;;;;;5037561;28;20045;-79